createdAt,value
2023-03-31T00:01:44.223Z,12.21
2023-03-31T00:04:13.463Z,12.26
2023-03-31T00:06:42.248Z,12.32
2023-03-31T00:09:14.048Z,12.36
2023-03-31T00:11:40.921Z,12.38
2023-03-31T00:14:08.321Z,12.38
2023-03-31T00:16:35.686Z,12.41
2023-03-31T00:19:02.494Z,12.52
2023-03-31T00:21:33.477Z,12.59
2023-03-31T00:24:02.148Z,12.58
2023-03-31T00:26:29.332Z,12.54
2023-03-31T00:28:56.754Z,12.58
2023-03-31T00:31:23.608Z,12.57
2023-03-31T00:33:50.634Z,12.58
2023-03-31T00:36:21.316Z,12.56
2023-03-31T00:38:48.511Z,12.54
2023-03-31T00:41:15.942Z,12.56
2023-03-31T00:44:24.199Z,12.61
2023-03-31T00:47:10.364Z,12.59
2023-03-31T00:49:45.006Z,12.54
2023-03-31T00:52:18.927Z,12.53
2023-03-31T00:54:48.254Z,12.53
2023-03-31T00:57:15.898Z,12.61
2023-03-31T00:59:57.737Z,12.65
2023-03-31T01:02:27.513Z,12.60
2023-03-31T01:05:02.030Z,12.67
2023-03-31T01:07:46.048Z,12.66
2023-03-31T01:10:13.237Z,12.69
2023-03-31T01:12:46.621Z,12.72
2023-03-31T01:15:13.613Z,12.56
2023-03-31T01:17:44.957Z,12.79
2023-03-31T01:20:29.770Z,12.84
2023-03-31T01:23:08.726Z,12.77
2023-03-31T01:26:07.584Z,12.75
2023-03-31T01:29:02.150Z,12.72
2023-03-31T01:31:52.904Z,12.73
2023-03-31T01:34:46.099Z,12.74
2023-03-31T01:37:21.189Z,12.57
2023-03-31T01:40:03.017Z,12.65
2023-03-31T01:42:37.252Z,12.66
2023-03-31T01:45:24.604Z,12.65
2023-03-31T01:48:09.441Z,12.69
2023-03-31T01:50:44.089Z,12.70
2023-03-31T01:53:34.766Z,12.73
2023-03-31T01:56:16.168Z,12.67
2023-03-31T01:58:51.145Z,12.68
2023-03-31T02:01:31.130Z,12.69
2023-03-31T02:04:07.535Z,12.66
2023-03-31T02:06:39.761Z,12.60
2023-03-31T02:09:13.378Z,12.54
2023-03-31T02:11:41.992Z,12.57
2023-03-31T02:14:12.140Z,12.57
2023-03-31T02:16:47.570Z,12.56
2023-03-31T02:19:18.649Z,12.57
2023-03-31T02:21:49.744Z,12.63
2023-03-31T02:24:19.529Z,12.66
2023-03-31T02:26:53.856Z,12.68
2023-03-31T02:29:20.820Z,12.72
2023-03-31T02:32:04.407Z,12.76
2023-03-31T02:34:31.242Z,12.74
2023-03-31T02:36:57.685Z,12.75
2023-03-31T02:39:29.619Z,12.73
2023-03-31T02:41:56.700Z,12.67
2023-03-31T02:44:23.650Z,12.67
2023-03-31T02:46:50.593Z,12.62
2023-03-31T02:49:19.704Z,12.55
2023-03-31T02:52:11.189Z,12.61
2023-03-31T02:54:54.329Z,12.53
2023-03-31T02:57:32.856Z,12.44
2023-03-31T03:00:16.671Z,12.38
2023-03-31T03:03:09.248Z,12.27
2023-03-31T03:05:54.731Z,12.20
2023-03-31T03:08:33.445Z,12.13
2023-03-31T03:11:12.182Z,12.04
2023-03-31T03:13:52.441Z,11.92
2023-03-31T03:16:28.936Z,11.83
2023-03-31T03:19:00.180Z,11.74
2023-03-31T03:21:27.036Z,11.65
2023-03-31T03:23:53.517Z,11.57
2023-03-31T03:26:28.111Z,11.48
2023-03-31T03:28:55.723Z,11.50
2023-03-31T03:31:23.974Z,11.46
2023-03-31T03:33:50.957Z,11.44
2023-03-31T03:36:17.264Z,11.45
2023-03-31T03:38:43.610Z,11.48
2023-03-31T03:41:10.195Z,11.47
2023-03-31T03:43:36.537Z,11.48
2023-03-31T03:46:03.045Z,11.38
2023-03-31T03:48:29.567Z,11.45
2023-03-31T03:50:57.229Z,11.44
2023-03-31T03:53:23.500Z,11.45
2023-03-31T03:55:49.894Z,11.44
2023-03-31T03:58:18.940Z,11.46
2023-03-31T04:00:46.164Z,11.42
2023-03-31T04:03:13.562Z,11.50
2023-03-31T04:05:40.145Z,11.45
2023-03-31T04:08:08.356Z,11.48
2023-03-31T04:10:38.179Z,11.47
2023-03-31T04:13:04.465Z,11.45
2023-03-31T04:15:30.803Z,11.44
2023-03-31T04:17:58.015Z,11.44
2023-03-31T04:20:27.667Z,11.41
2023-03-31T04:22:54.603Z,11.45
2023-03-31T04:25:22.543Z,11.36
2023-03-31T04:27:54.711Z,11.45
2023-03-31T04:30:30.509Z,11.31
2023-03-31T04:32:59.329Z,11.43
2023-03-31T04:35:42.616Z,11.43
2023-03-31T04:38:09.842Z,11.43
2023-03-31T04:40:36.102Z,11.43
2023-03-31T04:43:02.422Z,11.44
2023-03-31T04:45:28.747Z,11.46
2023-03-31T04:47:55.156Z,11.46
2023-03-31T04:50:21.508Z,11.47
2023-03-31T04:52:47.763Z,11.46
2023-03-31T04:55:14.113Z,11.47
2023-03-31T04:57:40.481Z,11.47
2023-03-31T05:00:07.885Z,11.53
2023-03-31T05:02:34.286Z,11.59
2023-03-31T05:05:00.599Z,11.52
2023-03-31T05:07:26.948Z,11.64
2023-03-31T05:09:53.226Z,11.68
2023-03-31T05:12:19.526Z,11.74
2023-03-31T05:14:45.867Z,11.76
2023-03-31T05:17:12.177Z,11.78
2023-03-31T05:19:38.446Z,11.74
2023-03-31T05:22:04.788Z,11.69
2023-03-31T05:24:31.311Z,11.63
2023-03-31T05:26:57.616Z,11.55
2023-03-31T05:29:24.450Z,11.50
2023-03-31T05:31:50.936Z,11.39
2023-03-31T05:34:17.299Z,11.33
2023-03-31T05:36:43.713Z,11.32
2023-03-31T05:39:10.638Z,11.21
2023-03-31T05:41:36.938Z,11.27
2023-03-31T05:44:03.226Z,11.16
2023-03-31T05:46:29.702Z,11.19
2023-03-31T05:48:56.458Z,11.01
2023-03-31T05:51:23.322Z,11.11
2023-03-31T05:53:49.627Z,11.07
2023-03-31T05:56:15.997Z,11.04
2023-03-31T05:58:42.630Z,10.95
2023-03-31T06:01:12.063Z,10.97
2023-03-31T06:03:41.362Z,10.91
2023-03-31T06:06:09.631Z,11.02
2023-03-31T06:08:37.646Z,11.05
2023-03-31T06:11:06.501Z,11.05
2023-03-31T06:13:34.140Z,11.04
2023-03-31T06:16:01.235Z,11.02
2023-03-31T06:18:29.478Z,11.00
2023-03-31T06:20:56.794Z,11.11
2023-03-31T06:23:23.799Z,11.13
2023-03-31T06:25:52.031Z,11.13
2023-03-31T06:28:19.927Z,11.11
2023-03-31T06:30:46.292Z,10.97
2023-03-31T06:33:13.521Z,11.04
2023-03-31T06:35:41.340Z,11.08
2023-03-31T06:38:07.963Z,11.04
2023-03-31T06:40:34.333Z,11.13
2023-03-31T06:43:01.160Z,11.18
2023-03-31T06:45:27.446Z,11.20
2023-03-31T06:47:53.745Z,11.20
2023-03-31T06:50:20.132Z,11.30
2023-03-31T06:52:47.057Z,11.31
2023-03-31T06:55:15.438Z,11.35
2023-03-31T06:57:42.284Z,11.39
2023-03-31T07:00:09.238Z,11.39
2023-03-31T07:02:37.160Z,11.30
2023-03-31T07:05:03.920Z,11.39
2023-03-31T07:07:33.849Z,11.50
2023-03-31T07:10:00.186Z,11.61
2023-03-31T07:12:26.456Z,11.73
2023-03-31T07:14:52.769Z,11.67
2023-03-31T07:17:19.158Z,11.79
2023-03-31T07:19:48.029Z,11.80
2023-03-31T07:22:15.701Z,11.75
2023-03-31T07:24:42.172Z,11.82
2023-03-31T07:27:08.590Z,11.79
2023-03-31T07:29:34.860Z,11.81
2023-03-31T07:32:01.404Z,11.86
2023-03-31T07:34:27.686Z,11.86
2023-03-31T07:36:56.890Z,11.72
2023-03-31T07:39:23.400Z,11.75
2023-03-31T07:41:49.691Z,11.77
2023-03-31T07:44:17.482Z,11.75
2023-03-31T07:46:43.858Z,11.72
2023-03-31T07:49:10.440Z,11.66
2023-03-31T07:51:36.812Z,11.52
2023-03-31T07:54:03.206Z,11.55
2023-03-31T07:56:29.503Z,11.50
2023-03-31T07:58:57.540Z,11.53
2023-03-31T08:01:28.808Z,11.54
2023-03-31T08:03:55.635Z,11.41
2023-03-31T08:06:24.459Z,11.41
2023-03-31T08:08:50.827Z,11.52
2023-03-31T08:11:18.480Z,11.38
2023-03-31T08:13:44.813Z,11.60
2023-03-31T08:16:11.200Z,12.10
2023-03-31T08:18:37.594Z,12.70
2023-03-31T08:21:04.239Z,13.01
2023-03-31T08:23:30.556Z,13.16
2023-03-31T08:26:16.553Z,13.15
2023-03-31T08:28:44.690Z,12.93
2023-03-31T08:31:11.721Z,12.67
2023-03-31T08:33:38.215Z,12.40
2023-03-31T08:36:08.907Z,12.14
2023-03-31T08:38:37.647Z,12.12
2023-03-31T08:41:07.585Z,12.01
2023-03-31T08:43:40.704Z,11.94
2023-03-31T08:46:13.900Z,11.93
2023-03-31T08:48:48.671Z,11.87
2023-03-31T08:51:31.283Z,11.85
2023-03-31T08:54:11.905Z,11.85
2023-03-31T08:56:43.463Z,11.75
2023-03-31T08:59:40.998Z,11.90
2023-03-31T09:02:44.033Z,12.54
2023-03-31T09:05:53.132Z,13.13
2023-03-31T09:08:33.521Z,13.46
2023-03-31T09:13:55.755Z,13.17
2023-03-31T09:16:22.111Z,12.88
2023-03-31T09:18:49.102Z,12.59
2023-03-31T09:21:44.316Z,12.41
2023-03-31T09:24:32.981Z,12.32
2023-03-31T09:27:06.882Z,12.20
2023-03-31T09:29:52.384Z,12.15
2023-03-31T09:32:25.358Z,12.10
2023-03-31T09:35:01.651Z,12.19
2023-03-31T09:37:32.679Z,12.35
2023-03-31T09:40:07.686Z,13.06
2023-03-31T09:42:35.651Z,13.81
2023-03-31T09:45:02.694Z,14.04
2023-03-31T09:47:38.856Z,13.96
2023-03-31T09:50:07.678Z,13.67
2023-03-31T09:52:50.371Z,13.43
2023-03-31T09:55:38.997Z,13.17
2023-03-31T09:58:08.501Z,12.72
2023-03-31T10:00:36.142Z,12.28
2023-03-31T10:03:07.599Z,11.91
2023-03-31T10:05:51.729Z,11.66
2023-03-31T10:08:26.294Z,11.65
2023-03-31T10:11:01.685Z,11.72
2023-03-31T10:13:46.860Z,11.82
2023-03-31T10:16:27.766Z,11.82
2023-03-31T10:18:54.227Z,12.08
2023-03-31T10:21:26.345Z,12.16
2023-03-31T10:23:53.736Z,12.20
2023-03-31T10:26:22.694Z,12.21
2023-03-31T10:28:52.534Z,12.21
2023-03-31T10:31:20.144Z,12.22
2023-03-31T10:33:48.719Z,12.22
2023-03-31T10:36:21.923Z,12.16
2023-03-31T10:38:50.066Z,12.06
2023-03-31T10:41:23.673Z,12.01
2023-03-31T10:43:58.425Z,11.99
2023-03-31T10:46:46.150Z,11.96
2023-03-31T10:49:21.399Z,11.94
2023-03-31T10:51:59.140Z,11.80
2023-03-31T10:54:26.612Z,11.85
2023-03-31T10:56:56.438Z,11.91
2023-03-31T11:00:02.059Z,11.99
2023-03-31T11:02:51.218Z,12.01
2023-03-31T11:05:48.952Z,12.17
2023-03-31T11:08:36.924Z,12.27
2023-03-31T11:11:12.468Z,12.43
2023-03-31T11:13:48.169Z,12.69
2023-03-31T11:16:32.925Z,13.15
2023-03-31T11:19:32.548Z,13.86
2023-03-31T11:22:17.223Z,14.63
2023-03-31T11:24:55.522Z,15.26
2023-03-31T11:27:34.107Z,15.44
2023-03-31T11:30:17.512Z,15.33
2023-03-31T11:33:20.707Z,15.07
2023-03-31T11:35:47.207Z,14.81
2023-03-31T11:38:24.063Z,14.47
2023-03-31T11:41:01.211Z,14.06
2023-03-31T11:43:36.439Z,13.84
2023-03-31T11:46:15.207Z,13.78
2023-03-31T11:48:55.152Z,13.79
2023-03-31T11:51:28.185Z,13.81
2023-03-31T11:53:56.123Z,13.91
2023-03-31T11:56:26.449Z,14.03
2023-03-31T11:58:56.600Z,14.15
2023-03-31T12:01:33.654Z,14.24
2023-03-31T12:04:03.769Z,14.30
2023-03-31T12:06:33.706Z,14.31
2023-03-31T12:09:45.274Z,14.40
2023-03-31T12:12:27.811Z,14.30
2023-03-31T12:15:02.860Z,14.27
2023-03-31T12:17:29.648Z,14.25
2023-03-31T12:20:10.442Z,14.68
2023-03-31T12:22:44.202Z,15.37
2023-03-31T12:25:15.112Z,15.64
2023-03-31T12:27:42.841Z,15.36
2023-03-31T12:30:19.682Z,14.94
2023-03-31T12:33:12.357Z,14.46
2023-03-31T12:35:58.471Z,13.91
2023-03-31T12:38:30.928Z,13.58
2023-03-31T12:41:38.254Z,13.12
2023-03-31T12:44:39.509Z,12.87
2023-03-31T12:47:40.878Z,12.71
2023-03-31T12:50:19.287Z,12.69
2023-03-31T12:53:09.708Z,12.65
2023-03-31T12:56:08.754Z,12.69
2023-03-31T12:58:43.061Z,12.75
2023-03-31T13:01:20.156Z,12.97
2023-03-31T13:03:51.744Z,13.19
2023-03-31T13:06:30.298Z,13.45
2023-03-31T13:08:57.542Z,13.63
2023-03-31T13:11:32.935Z,13.74
2023-03-31T13:14:20.740Z,13.78
2023-03-31T13:16:48.948Z,13.82
2023-03-31T13:19:47.982Z,13.75
2023-03-31T13:22:33.232Z,13.63
2023-03-31T13:25:30.682Z,13.55
2023-03-31T13:27:59.252Z,13.35
2023-03-31T13:30:41.219Z,12.97
2023-03-31T13:33:10.661Z,12.58
2023-03-31T13:35:39.330Z,12.39
2023-03-31T13:38:25.656Z,12.24
2023-03-31T13:41:13.281Z,12.02
2023-03-31T13:43:58.416Z,11.87
2023-03-31T13:46:27.774Z,11.78
2023-03-31T13:49:37.423Z,11.76
2023-03-31T13:52:05.252Z,11.79
2023-03-31T13:55:13.950Z,11.83
2023-03-31T13:58:19.920Z,11.85
2023-03-31T14:01:14.277Z,11.78
2023-03-31T14:03:55.804Z,11.76
2023-03-31T14:06:36.991Z,11.85
2023-03-31T14:09:10.885Z,11.91
2023-03-31T14:11:37.618Z,11.97
2023-03-31T14:14:16.681Z,11.93
2023-03-31T14:16:48.748Z,11.94
2023-03-31T14:19:42.330Z,12.05
2023-03-31T14:23:02.843Z,12.35
2023-03-31T14:25:50.350Z,12.55
2023-03-31T14:28:42.438Z,12.65
2023-03-31T14:31:13.402Z,12.68
2023-03-31T14:33:58.501Z,12.78
2023-03-31T14:36:39.291Z,13.09
2023-03-31T14:39:10.717Z,13.76
2023-03-31T14:41:39.033Z,14.29
2023-03-31T14:44:07.516Z,14.81
2023-03-31T14:46:37.987Z,15.14
2023-03-31T14:49:19.929Z,15.24
2023-03-31T14:51:46.727Z,15.05
2023-03-31T14:54:18.488Z,14.67
2023-03-31T14:56:49.534Z,14.43
2023-03-31T14:59:22.533Z,14.18
2023-03-31T15:01:49.909Z,13.97
2023-03-31T15:04:20.445Z,13.79
2023-03-31T15:06:51.777Z,13.63
2023-03-31T15:09:28.341Z,13.48
2023-03-31T15:12:00.527Z,13.49
2023-03-31T15:14:34.371Z,13.44
2023-03-31T15:17:00.777Z,13.19
2023-03-31T15:19:34.208Z,12.80
2023-03-31T15:22:10.506Z,12.36
2023-03-31T15:24:36.998Z,11.93
2023-03-31T15:27:18.059Z,11.71
2023-03-31T15:29:56.047Z,11.57
2023-03-31T15:32:27.139Z,11.51
2023-03-31T15:34:55.487Z,11.48
2023-03-31T15:37:35.091Z,11.53
2023-03-31T15:40:07.042Z,11.81
2023-03-31T15:42:35.021Z,12.14
2023-03-31T15:45:15.754Z,12.45
2023-03-31T15:47:52.794Z,12.51
2023-03-31T15:50:24.228Z,12.47
2023-03-31T15:52:55.785Z,12.46
2023-03-31T15:55:39.353Z,12.46
2023-03-31T15:58:06.269Z,12.45
2023-03-31T16:00:47.695Z,12.48
2023-03-31T16:03:24.145Z,12.42
2023-03-31T16:06:01.212Z,12.37
2023-03-31T16:08:54.478Z,12.35
2023-03-31T16:11:33.205Z,12.32
2023-03-31T16:14:05.729Z,12.22
2023-03-31T16:16:33.185Z,12.25
2023-03-31T16:19:07.294Z,12.15
2023-03-31T16:21:42.083Z,12.24
2023-03-31T16:24:09.070Z,12.19
2023-03-31T16:26:37.290Z,12.20
2023-03-31T16:29:04.955Z,12.20
2023-03-31T16:31:41.496Z,12.27
2023-03-31T16:34:10.731Z,12.32
2023-03-31T16:36:37.141Z,12.38
2023-03-31T16:39:05.251Z,12.42
2023-03-31T16:41:33.122Z,12.51
2023-03-31T16:43:59.640Z,12.53
2023-03-31T16:46:26.326Z,12.43
2023-03-31T16:48:52.803Z,12.54
2023-03-31T16:51:19.890Z,12.51
2023-03-31T16:53:47.794Z,12.43
2023-03-31T16:56:14.411Z,12.39
2023-03-31T16:58:41.304Z,12.21
2023-03-31T17:01:08.613Z,12.37
2023-03-31T17:03:37.200Z,12.21
2023-03-31T17:06:10.518Z,12.13
2023-03-31T17:08:38.181Z,12.07
2023-03-31T17:11:07.871Z,12.06
2023-03-31T17:13:34.436Z,12.02
2023-03-31T17:16:16.828Z,12.01
2023-03-31T17:18:45.438Z,12.05
2023-03-31T17:21:14.433Z,12.03
2023-03-31T17:23:41.438Z,12.06
2023-03-31T17:26:09.654Z,12.10
2023-03-31T17:28:36.704Z,12.08
2023-03-31T17:31:11.310Z,12.12
2023-03-31T17:33:37.599Z,12.10
2023-03-31T17:36:04.188Z,12.14
2023-03-31T17:38:30.598Z,12.12
2023-03-31T17:41:02.909Z,12.12
2023-03-31T17:43:29.443Z,12.14
2023-03-31T17:46:07.453Z,12.20
2023-03-31T17:48:35.012Z,12.25
2023-03-31T17:51:10.239Z,12.25
2023-03-31T17:53:36.643Z,12.29
2023-03-31T17:56:04.285Z,12.23
2023-03-31T17:58:31.085Z,12.32
2023-03-31T18:00:57.700Z,12.31
2023-03-31T18:03:24.530Z,12.30
2023-03-31T18:05:50.880Z,12.23
2023-03-31T18:08:17.704Z,12.16
2023-03-31T18:10:44.074Z,12.08
2023-03-31T18:13:11.422Z,11.97
2023-03-31T18:15:38.765Z,11.88
2023-03-31T18:18:05.726Z,11.81
2023-03-31T18:20:32.639Z,11.65
2023-03-31T18:23:00.130Z,11.61
2023-03-31T18:25:26.921Z,11.52
2023-03-31T18:27:53.511Z,11.44
2023-03-31T18:30:19.997Z,11.39
2023-03-31T18:32:46.323Z,11.36
2023-03-31T18:35:12.708Z,11.30
2023-03-31T18:37:39.312Z,11.36
2023-03-31T18:40:06.251Z,11.33
2023-03-31T18:42:32.521Z,11.32
2023-03-31T18:44:58.858Z,11.32
2023-03-31T18:47:26.398Z,11.41
2023-03-31T18:49:55.513Z,11.45
2023-03-31T18:52:22.086Z,11.51
2023-03-31T18:54:49.987Z,11.44
2023-03-31T18:57:16.358Z,11.50
2023-03-31T18:59:43.380Z,11.41
2023-03-31T19:02:13.876Z,11.50
2023-03-31T19:04:40.398Z,11.53
2023-03-31T19:07:06.726Z,11.64
2023-03-31T19:09:33.058Z,11.68
2023-03-31T19:11:59.428Z,11.67
2023-03-31T19:14:25.757Z,11.62
2023-03-31T19:16:52.258Z,11.76
2023-03-31T19:19:18.666Z,11.77
2023-03-31T19:21:45.461Z,11.70
2023-03-31T19:24:11.897Z,11.75
2023-03-31T19:26:38.470Z,11.74
2023-03-31T19:29:05.404Z,11.77
2023-03-31T19:31:38.002Z,11.77
2023-03-31T19:34:05.723Z,11.76
2023-03-31T19:36:32.032Z,11.60
2023-03-31T19:38:59.208Z,11.59
2023-03-31T19:41:27.190Z,11.52
2023-03-31T19:43:54.295Z,11.35
2023-03-31T19:46:20.638Z,11.43
2023-03-31T19:48:46.962Z,11.44
2023-03-31T19:51:13.338Z,11.33
2023-03-31T19:53:40.909Z,11.36
2023-03-31T19:56:09.671Z,11.36
2023-03-31T19:58:37.048Z,11.31
2023-03-31T20:01:13.285Z,11.29
2023-03-31T20:03:39.677Z,11.22
2023-03-31T20:06:09.090Z,11.20
2023-03-31T20:08:37.016Z,11.13
2023-03-31T20:11:05.899Z,11.12
2023-03-31T20:13:35.648Z,11.08
2023-03-31T20:16:05.824Z,11.08
2023-03-31T20:18:32.576Z,11.07
2023-03-31T20:21:11.302Z,11.06
2023-03-31T20:23:38.891Z,11.05
2023-03-31T20:26:08.794Z,11.07
2023-03-31T20:28:37.694Z,11.03
2023-03-31T20:31:15.657Z,11.03
2023-03-31T20:33:43.161Z,10.97
2023-03-31T20:36:15.472Z,10.90
2023-03-31T20:38:44.957Z,10.95
2023-03-31T20:41:11.487Z,10.93
2023-03-31T20:43:38.458Z,10.94
2023-03-31T20:46:07.419Z,10.95
2023-03-31T20:48:42.871Z,10.97
2023-03-31T20:51:12.221Z,10.99
2023-03-31T20:53:47.507Z,11.01
2023-03-31T20:56:16.819Z,11.02
2023-03-31T20:58:44.359Z,11.02
2023-03-31T21:01:11.818Z,11.05
2023-03-31T21:03:38.393Z,10.98
2023-03-31T21:06:11.083Z,10.97
2023-03-31T21:08:38.077Z,10.98
2023-03-31T21:11:04.422Z,10.93
2023-03-31T21:13:32.000Z,10.93
2023-03-31T21:15:59.753Z,10.88
2023-03-31T21:18:27.297Z,10.89
2023-03-31T21:20:56.809Z,10.89
2023-03-31T21:23:24.567Z,10.84
2023-03-31T21:25:53.690Z,10.89
2023-03-31T21:28:22.775Z,10.91
2023-03-31T21:30:50.808Z,10.91
2023-03-31T21:33:17.606Z,10.96
2023-03-31T21:35:44.145Z,10.95
2023-03-31T21:38:10.451Z,11.03
2023-03-31T21:40:36.889Z,11.03
2023-03-31T21:43:03.293Z,11.02
2023-03-31T21:45:30.812Z,11.02
2023-03-31T21:47:58.010Z,10.94
2023-03-31T21:50:24.357Z,11.03
2023-03-31T21:52:50.660Z,10.98
2023-03-31T21:55:17.019Z,11.01
2023-03-31T21:57:43.356Z,11.03
2023-03-31T22:00:12.316Z,11.02
2023-03-31T22:02:39.242Z,10.99
2023-03-31T22:05:06.032Z,11.07
2023-03-31T22:07:32.450Z,11.07
2023-03-31T22:09:58.978Z,11.08
2023-03-31T22:12:26.390Z,11.08
2023-03-31T22:14:52.674Z,11.10
2023-03-31T22:17:20.681Z,11.04
2023-03-31T22:19:47.922Z,11.11
2023-03-31T22:22:14.222Z,11.11
2023-03-31T22:24:40.610Z,11.09
2023-03-31T22:27:07.194Z,11.03
2023-03-31T22:29:33.843Z,11.04
2023-03-31T22:32:00.427Z,11.10
2023-03-31T22:34:26.787Z,11.10
2023-03-31T22:36:53.144Z,11.07
2023-03-31T22:39:19.508Z,11.07
2023-03-31T22:41:48.158Z,11.05
2023-03-31T22:44:14.482Z,11.01
2023-03-31T22:46:41.412Z,11.06
2023-03-31T22:49:07.735Z,11.09
2023-03-31T22:51:34.853Z,11.10
2023-03-31T22:54:01.154Z,11.04
2023-03-31T22:56:28.226Z,11.12
2023-03-31T22:58:57.444Z,11.10
2023-03-31T23:01:24.240Z,11.13
2023-03-31T23:03:50.954Z,11.09
2023-03-31T23:06:17.284Z,11.14
2023-03-31T23:08:45.251Z,11.09
2023-03-31T23:11:12.941Z,11.19
2023-03-31T23:13:39.643Z,11.23
2023-03-31T23:16:07.417Z,11.17
2023-03-31T23:18:34.552Z,11.22
2023-03-31T23:21:04.285Z,11.30
2023-03-31T23:23:30.669Z,11.30
2023-03-31T23:26:00.734Z,11.34
2023-03-31T23:28:27.545Z,11.36
2023-03-31T23:30:56.674Z,11.35
2023-03-31T23:33:24.230Z,11.33
2023-03-31T23:35:52.434Z,11.33
2023-03-31T23:38:19.934Z,11.27
2023-03-31T23:40:46.614Z,11.30
2023-03-31T23:43:13.429Z,11.29
2023-03-31T23:45:39.726Z,11.29
2023-03-31T23:48:06.117Z,11.26
2023-03-31T23:50:33.844Z,11.26
2023-03-31T23:53:01.273Z,11.26
2023-03-31T23:55:28.579Z,11.30
2023-03-31T23:57:55.248Z,11.28
